sensor_id;sensor_type;location;lat;lon;timestamp;pressure;altitude;pressure_sealevel;temperature;humidity
9257;BME280;4665;51.368;6.782;2022-09-28T00:01:43;99291.09;;;7.75;100.00
9257;BME280;4665;51.368;6.782;2022-09-28T00:04:09;99283.50;;;7.72;100.00
9257;BME280;4665;51.368;6.782;2022-09-28T00:06:43;99284.16;;;7.66;100.00
9257;BME280;4665;51.368;6.782;2022-09-28T00:09:09;99280.91;;;7.64;100.00
9257;BME280;4665;51.368;6.782;2022-09-28T00:11:34;99266.63;;;7.65;100.00
9257;BME280;4665;51.368;6.782;2022-09-28T00:14:01;99273.56;;;7.66;100.00
9257;BME280;4665;51.368;6.782;2022-09-28T00:16:38;99275.25;;;7.67;100.00
9257;BME280;4665;51.368;6.782;2022-09-28T00:19:04;99270.28;;;7.64;100.00
9257;BME280;4665;51.368;6.782;2022-09-28T00:21:34;99280.91;;;7.64;100.00
9257;BME280;4665;51.368;6.782;2022-09-28T00:24:01;99275.09;;;7.60;100.00
9257;BME280;4665;51.368;6.782;2022-09-28T00:26:41;99265.66;;;7.57;100.00
9257;BME280;4665;51.368;6.782;2022-09-28T00:29:14;99267.16;;;7.60;100.00
9257;BME280;4665;51.368;6.782;2022-09-28T00:31:40;99276.94;;;7.59;100.00
9257;BME280;4665;51.368;6.782;2022-09-28T00:34:06;99264.34;;;7.53;100.00
9257;BME280;4665;51.368;6.782;2022-09-28T00:36:32;99260.59;;;7.48;100.00
9257;BME280;4665;51.368;6.782;2022-09-28T00:38:58;99266.19;;;7.45;100.00
9257;BME280;4665;51.368;6.782;2022-09-28T00:41:26;99265.88;;;7.48;100.00
9257;BME280;4665;51.368;6.782;2022-09-28T00:43:53;99259.91;;;7.46;100.00
9257;BME280;4665;51.368;6.782;2022-09-28T00:46:23;99267.38;;;7.42;100.00
9257;BME280;4665;51.368;6.782;2022-09-28T00:48:59;99262.72;;;7.44;100.00
9257;BME280;4665;51.368;6.782;2022-09-28T00:51:29;99265.38;;;7.44;100.00
9257;BME280;4665;51.368;6.782;2022-09-28T00:53:57;99261.03;;;7.51;100.00
9257;BME280;4665;51.368;6.782;2022-09-28T00:56:27;99251.47;;;7.50;100.00
9257;BME280;4665;51.368;6.782;2022-09-28T00:58:55;99249.47;;;7.52;100.00
9257;BME280;4665;51.368;6.782;2022-09-28T01:01:23;99247.78;;;7.51;100.00
9257;BME280;4665;51.368;6.782;2022-09-28T01:03:48;99246.63;;;7.54;100.00
9257;BME280;4665;51.368;6.782;2022-09-28T01:06:18;99250.75;;;7.56;100.00
9257;BME280;4665;51.368;6.782;2022-09-28T01:08:46;99256.72;;;7.58;100.00
9257;BME280;4665;51.368;6.782;2022-09-28T01:11:12;99246.09;;;7.58;100.00
9257;BME280;4665;51.368;6.782;2022-09-28T01:13:38;99251.41;;;7.58;100.00
9257;BME280;4665;51.368;6.782;2022-09-28T01:16:26;99245.00;;;7.53;100.00
9257;BME280;4665;51.368;6.782;2022-09-28T01:21:49;99248.66;;;7.44;100.00
9257;BME280;4665;51.368;6.782;2022-09-28T01:24:22;99251.00;;;7.38;100.00
9257;BME280;4665;51.368;6.782;2022-09-28T01:29:32;99252.50;;;7.33;100.00
9257;BME280;4665;51.368;6.782;2022-09-28T01:32:07;99247.72;;;7.28;100.00
9257;BME280;4665;51.368;6.782;2022-09-28T01:35:07;99250.88;;;7.32;100.00
9257;BME280;4665;51.368;6.782;2022-09-28T01:40:32;99247.41;;;7.23;100.00
9257;BME280;4665;51.368;6.782;2022-09-28T01:43:16;99249.06;;;7.24;100.00
9257;BME280;4665;51.368;6.782;2022-09-28T01:46:13;99242.94;;;7.24;100.00
9257;BME280;4665;51.368;6.782;2022-09-28T01:48:47;99253.19;;;7.27;100.00
9257;BME280;4665;51.368;6.782;2022-09-28T01:51:24;99241.59;;;7.28;100.00
9257;BME280;4665;51.368;6.782;2022-09-28T01:53:56;99245.41;;;7.33;100.00
9257;BME280;4665;51.368;6.782;2022-09-28T01:56:42;99245.41;;;7.33;100.00
9257;BME280;4665;51.368;6.782;2022-09-28T01:59:22;99238.28;;;7.34;100.00
9257;BME280;4665;51.368;6.782;2022-09-28T02:01:53;99231.97;;;7.35;100.00
9257;BME280;4665;51.368;6.782;2022-09-28T02:07:13;99227.69;;;7.34;100.00
9257;BME280;4665;51.368;6.782;2022-09-28T02:09:44;99227.84;;;7.32;100.00
9257;BME280;4665;51.368;6.782;2022-09-28T02:12:24;99240.78;;;7.27;100.00
9257;BME280;4665;51.368;6.782;2022-09-28T02:14:54;99231.16;;;7.26;100.00
9257;BME280;4665;51.368;6.782;2022-09-28T02:17:22;99235.47;;;7.27;100.00
9257;BME280;4665;51.368;6.782;2022-09-28T02:19:48;99231.81;;;7.28;100.00
9257;BME280;4665;51.368;6.782;2022-09-28T02:22:24;99236.66;;;7.25;100.00
9257;BME280;4665;51.368;6.782;2022-09-28T02:25:01;99228.72;;;7.25;100.00
9257;BME280;4665;51.368;6.782;2022-09-28T02:29:59;99235.78;;;7.32;100.00
9257;BME280;4665;51.368;6.782;2022-09-28T02:32:27;99243.06;;;7.30;100.00
9257;BME280;4665;51.368;6.782;2022-09-28T02:34:54;99240.63;;;7.29;100.00
9257;BME280;4665;51.368;6.782;2022-09-28T02:37:19;99242.59;;;7.27;100.00
9257;BME280;4665;51.368;6.782;2022-09-28T02:39:45;99237.97;;;7.29;100.00
9257;BME280;4665;51.368;6.782;2022-09-28T02:42:20;99254.69;;;7.29;100.00
9257;BME280;4665;51.368;6.782;2022-09-28T02:45:12;99246.72;;;7.29;100.00
9257;BME280;4665;51.368;6.782;2022-09-28T02:50:52;99240.63;;;7.29;100.00
9257;BME280;4665;51.368;6.782;2022-09-28T02:53:46;99245.56;;;7.32;100.00
9257;BME280;4665;51.368;6.782;2022-09-28T02:56:46;99245.88;;;7.37;100.00
9257;BME280;4665;51.368;6.782;2022-09-28T03:02:19;99251.81;;;7.39;100.00
9257;BME280;4665;51.368;6.782;2022-09-28T03:08:40;99249.47;;;7.52;100.00
9257;BME280;4665;51.368;6.782;2022-09-28T03:13:13;99240.84;;;7.50;100.00
9257;BME280;4665;51.368;6.782;2022-09-28T03:15:41;99249.63;;;7.51;100.00
9257;BME280;4665;51.368;6.782;2022-09-28T03:18:09;99255.59;;;7.45;100.00
9257;BME280;4665;51.368;6.782;2022-09-28T03:20:34;99253.75;;;7.53;100.00
9257;BME280;4665;51.368;6.782;2022-09-28T03:23:00;99255.44;;;7.54;100.00
9257;BME280;4665;51.368;6.782;2022-09-28T03:25:26;99255.44;;;7.54;100.00
9257;BME280;4665;51.368;6.782;2022-09-28T03:27:51;99256.38;;;7.62;100.00
9257;BME280;4665;51.368;6.782;2022-09-28T03:30:17;99260.84;;;7.61;100.00
9257;BME280;4665;51.368;6.782;2022-09-28T03:32:42;99258.19;;;7.61;100.00
9257;BME280;4665;51.368;6.782;2022-09-28T03:35:08;99254.09;;;7.50;100.00
9257;BME280;4665;51.368;6.782;2022-09-28T03:37:34;99252.94;;;7.45;100.00
9257;BME280;4665;51.368;6.782;2022-09-28T03:40:18;99243.00;;;7.47;100.00
9257;BME280;4665;51.368;6.782;2022-09-28T03:42:44;99247.13;;;7.49;100.00
9257;BME280;4665;51.368;6.782;2022-09-28T03:45:25;99254.47;;;7.47;100.00
9257;BME280;4665;51.368;6.782;2022-09-28T03:47:50;99243.88;;;7.39;100.00
9257;BME280;4665;51.368;6.782;2022-09-28T03:53:23;99247.50;;;7.46;100.00
9257;BME280;4665;51.368;6.782;2022-09-28T03:55:55;99252.63;;;7.48;100.00
9257;BME280;4665;51.368;6.782;2022-09-28T03:58:26;99247.50;;;7.46;100.00
9257;BME280;4665;51.368;6.782;2022-09-28T04:00:53;99252.13;;;7.52;100.00
9257;BME280;4665;51.368;6.782;2022-09-28T04:03:18;99243.06;;;7.38;100.00
9257;BME280;4665;51.368;6.782;2022-09-28T04:05:56;99256.31;;;7.38;100.00
9257;BME280;4665;51.368;6.782;2022-09-28T04:08:22;99255.34;;;7.31;100.00
9257;BME280;4665;51.368;6.782;2022-09-28T04:10:59;99254.69;;;7.29;100.00
9257;BME280;4665;51.368;6.782;2022-09-28T04:13:26;99252.03;;;7.29;100.00
9257;BME280;4665;51.368;6.782;2022-09-28T04:16:04;99251.22;;;7.29;100.00
9257;BME280;4665;51.368;6.782;2022-09-28T04:18:30;99254.31;;;7.32;100.00
9257;BME280;4665;51.368;6.782;2022-09-28T04:21:05;99259.94;;;7.37;100.00
9257;BME280;4665;51.368;6.782;2022-09-28T04:23:35;99262.44;;;7.39;100.00
9257;BME280;4665;51.368;6.782;2022-09-28T04:26:15;99269.38;;;7.40;100.00
9257;BME280;4665;51.368;6.782;2022-09-28T04:28:42;99261.25;;;7.42;100.00
9257;BME280;4665;51.368;6.782;2022-09-28T04:31:27;99257.63;;;7.43;100.00
9257;BME280;4665;51.368;6.782;2022-09-28T04:33:55;99258.13;;;7.38;100.00
9257;BME280;4665;51.368;6.782;2022-09-28T04:36:22;99255.34;;;7.31;100.00
9257;BME280;4665;51.368;6.782;2022-09-28T04:38:51;99252.69;;;7.31;100.00
9257;BME280;4665;51.368;6.782;2022-09-28T04:41:17;99261.09;;;7.35;100.00
9257;BME280;4665;51.368;6.782;2022-09-28T04:43:42;99254.16;;;7.34;100.00
9257;BME280;4665;51.368;6.782;2022-09-28T04:46:10;99253.66;;;7.30;100.00
9257;BME280;4665;51.368;6.782;2022-09-28T04:48:36;99259.28;;;7.35;100.00
9257;BME280;4665;51.368;6.782;2022-09-28T04:51:02;99245.22;;;7.35;100.00
9257;BME280;4665;51.368;6.782;2022-09-28T04:53:28;99263.25;;;7.40;100.00
9257;BME280;4665;51.368;6.782;2022-09-28T04:56:12;99263.75;;;7.43;100.00
9257;BME280;4665;51.368;6.782;2022-09-28T04:58:39;99255.13;;;7.41;100.00
9257;BME280;4665;51.368;6.782;2022-09-28T05:01:16;99264.06;;;7.40;100.00
9257;BME280;4665;51.368;6.782;2022-09-28T05:03:42;99250.19;;;7.38;100.00
9257;BME280;4665;51.368;6.782;2022-09-28T05:06:12;99252.84;;;7.38;100.00
9257;BME280;4665;51.368;6.782;2022-09-28T05:08:38;99255.50;;;7.38;100.00
9257;BME280;4665;51.368;6.782;2022-09-28T05:11:05;99259.94;;;7.37;100.00
9257;BME280;4665;51.368;6.782;2022-09-28T05:13:32;99258.28;;;7.36;100.00
9257;BME280;4665;51.368;6.782;2022-09-28T05:16:00;99249.34;;;7.37;100.00
9257;BME280;4665;51.368;6.782;2022-09-28T05:18:26;99249.69;;;7.43;100.00
9257;BME280;4665;51.368;6.782;2022-09-28T05:20:52;99259.44;;;7.42;100.00
9257;BME280;4665;51.368;6.782;2022-09-28T05:23:18;99265.38;;;7.44;100.00
9257;BME280;4665;51.368;6.782;2022-09-28T05:25:43;99263.38;;;7.46;100.00
9257;BME280;4665;51.368;6.782;2022-09-28T05:28:10;99259.75;;;7.47;100.00
9257;BME280;4665;51.368;6.782;2022-09-28T05:30:36;99260.91;;;7.45;100.00
9257;BME280;4665;51.368;6.782;2022-09-28T05:33:02;99259.25;;;7.44;100.00
9257;BME280;4665;51.368;6.782;2022-09-28T05:35:28;99248.66;;;7.44;100.00
9257;BME280;4665;51.368;6.782;2022-09-28T05:37:55;99249.47;;;7.44;100.00
9257;BME280;4665;51.368;6.782;2022-09-28T05:40:21;99247.50;;;7.46;100.00
9257;BME280;4665;51.368;6.782;2022-09-28T05:42:46;99253.44;;;7.48;100.00
9257;BME280;4665;51.368;6.782;2022-09-28T05:45:12;99258.59;;;7.50;100.00
9257;BME280;4665;51.368;6.782;2022-09-28T05:47:39;99259.88;;;7.54;100.00
9257;BME280;4665;51.368;6.782;2022-09-28T05:50:06;99260.72;;;7.54;100.00
9257;BME280;4665;51.368;6.782;2022-09-28T05:52:32;99261.09;;;7.43;100.00
9257;BME280;4665;51.368;6.782;2022-09-28T05:54:57;99267.72;;;7.47;100.00
9257;BME280;4665;51.368;6.782;2022-09-28T05:57:24;99264.41;;;7.45;100.00
9257;BME280;4665;51.368;6.782;2022-09-28T05:59:49;99267.06;;;7.45;100.00
9257;BME280;4665;51.368;6.782;2022-09-28T06:02:15;99266.19;;;7.45;100.00
9257;BME280;4665;51.368;6.782;2022-09-28T06:04:40;99270.38;;;7.39;100.00
9257;BME280;4665;51.368;6.782;2022-09-28T06:07:06;99264.56;;;7.44;100.00
9257;BME280;4665;51.368;6.782;2022-09-28T06:09:31;99272.00;;;7.40;100.00
9257;BME280;4665;51.368;6.782;2022-09-28T06:11:58;99271.53;;;7.36;100.00
9257;BME280;4665;51.368;6.782;2022-09-28T06:14:24;99263.75;;;7.35;100.00
9257;BME280;4665;51.368;6.782;2022-09-28T06:16:50;99276.03;;;7.36;100.00
9257;BME280;4665;51.368;6.782;2022-09-28T06:19:16;99286.63;;;7.36;100.00
9257;BME280;4665;51.368;6.782;2022-09-28T06:21:42;99284.78;;;7.36;100.00
9257;BME280;4665;51.368;6.782;2022-09-28T06:24:07;99286.13;;;7.32;100.00
9257;BME280;4665;51.368;6.782;2022-09-28T06:26:32;99292.06;;;7.34;100.00
9257;BME280;4665;51.368;6.782;2022-09-28T06:28:58;99286.94;;;7.33;100.00
9257;BME280;4665;51.368;6.782;2022-09-28T06:31:25;99292.38;;;7.40;100.00
9257;BME280;4665;51.368;6.782;2022-09-28T06:33:51;99300.00;;;7.43;100.00
9257;BME280;4665;51.368;6.782;2022-09-28T06:36:17;99303.66;;;7.42;100.00
9257;BME280;4665;51.368;6.782;2022-09-28T06:38:44;99309.09;;;7.40;100.00
9257;BME280;4665;51.368;6.782;2022-09-28T06:41:10;99313.25;;;7.43;100.00
9257;BME280;4665;51.368;6.782;2022-09-28T06:43:37;99320.34;;;7.42;100.00
9257;BME280;4665;51.368;6.782;2022-09-28T06:46:07;99315.25;;;7.41;100.00
9257;BME280;4665;51.368;6.782;2022-09-28T06:48:34;99313.06;;;7.44;100.00
9257;BME280;4665;51.368;6.782;2022-09-28T06:51:00;99317.41;;;7.45;100.00
9257;BME280;4665;51.368;6.782;2022-09-28T06:53:25;99315.56;;;7.46;100.00
9257;BME280;4665;51.368;6.782;2022-09-28T06:55:54;99315.72;;;7.44;100.00
9257;BME280;4665;51.368;6.782;2022-09-28T06:58:20;99317.56;;;7.44;100.00
9257;BME280;4665;51.368;6.782;2022-09-28T07:00:48;99318.88;;;7.48;100.00
9257;BME280;4665;51.368;6.782;2022-09-28T07:03:16;99326.63;;;7.49;100.00
9257;BME280;4665;51.368;6.782;2022-09-28T07:05:45;99316.03;;;7.49;100.00
9257;BME280;4665;51.368;6.782;2022-09-28T07:08:11;99325.47;;;7.52;100.00
9257;BME280;4665;51.368;6.782;2022-09-28T07:10:45;99322.66;;;7.53;100.00
9257;BME280;4665;51.368;6.782;2022-09-28T07:13:12;99338.56;;;7.53;100.00
9257;BME280;4665;51.368;6.782;2022-09-28T07:15:38;99333.25;;;7.53;100.00
9257;BME280;4665;51.368;6.782;2022-09-28T07:18:06;99344.66;;;7.62;100.00
9257;BME280;4665;51.368;6.782;2022-09-28T07:20:33;99345.16;;;7.57;100.00
9257;BME280;4665;51.368;6.782;2022-09-28T07:23:01;99354.25;;;7.63;100.00
9257;BME280;4665;51.368;6.782;2022-09-28T07:25:28;99354.09;;;7.65;100.00
9257;BME280;4665;51.368;6.782;2022-09-28T07:27:58;99347.78;;;7.66;100.00
9257;BME280;4665;51.368;6.782;2022-09-28T07:30:30;99348.44;;;7.68;100.00
9257;BME280;4665;51.368;6.782;2022-09-28T07:32:59;99353.88;;;7.74;100.00
9257;BME280;4665;51.368;6.782;2022-09-28T07:35:25;99352.06;;;7.75;100.00
9257;BME280;4665;51.368;6.782;2022-09-28T07:38:02;99356.03;;;7.79;100.00
9257;BME280;4665;51.368;6.782;2022-09-28T07:40:28;99361.34;;;7.79;100.00
9257;BME280;4665;51.368;6.782;2022-09-28T07:43:12;99354.03;;;7.81;100.00
9257;BME280;4665;51.368;6.782;2022-09-28T07:45:38;99368.91;;;7.90;100.00
9257;BME280;4665;51.368;6.782;2022-09-28T07:48:04;99360.16;;;7.90;100.00
9257;BME280;4665;51.368;6.782;2022-09-28T07:50:30;99365.09;;;7.93;100.00
9257;BME280;4665;51.368;6.782;2022-09-28T07:52:56;99369.72;;;7.99;100.00
9257;BME280;4665;51.368;6.782;2022-09-28T07:55:22;99366.88;;;8.00;100.00
9257;BME280;4665;51.368;6.782;2022-09-28T07:57:57;99376.00;;;8.06;100.00
9257;BME280;4665;51.368;6.782;2022-09-28T08:00:30;99372.97;;;8.09;100.00
9257;BME280;4665;51.368;6.782;2022-09-28T08:03:02;99377.78;;;8.14;100.00
9257;BME280;4665;51.368;6.782;2022-09-28T08:05:28;99378.44;;;8.16;100.00
9257;BME280;4665;51.368;6.782;2022-09-28T08:07:57;99385.22;;;8.18;100.00
9257;BME280;4665;51.368;6.782;2022-09-28T08:10:27;99386.69;;;8.21;100.00
9257;BME280;4665;51.368;6.782;2022-09-28T08:12:56;99383.56;;;8.17;100.00
9257;BME280;4665;51.368;6.782;2022-09-28T08:15:28;99388.69;;;8.19;100.00
9257;BME280;4665;51.368;6.782;2022-09-28T08:18:02;99393.13;;;8.27;100.00
9257;BME280;4665;51.368;6.782;2022-09-28T08:20:29;99391.66;;;8.24;100.00
9257;BME280;4665;51.368;6.782;2022-09-28T08:23:13;99402.38;;;8.31;100.00
9257;BME280;4665;51.368;6.782;2022-09-28T08:25:39;99404.22;;;8.30;100.00
9257;BME280;4665;51.368;6.782;2022-09-28T08:28:08;99403.56;;;8.28;100.00
9257;BME280;4665;51.368;6.782;2022-09-28T08:30:34;99415.78;;;8.37;100.00
9257;BME280;4665;51.368;6.782;2022-09-28T08:32:59;99411.22;;;8.23;100.00
9257;BME280;4665;51.368;6.782;2022-09-28T08:35:25;99406.88;;;8.30;100.00
9257;BME280;4665;51.368;6.782;2022-09-28T08:37:51;99409.66;;;8.37;100.00
9257;BME280;4665;51.368;6.782;2022-09-28T08:40:21;99423.47;;;8.40;100.00
9257;BME280;4665;51.368;6.782;2022-09-28T08:43:01;99420.44;;;8.43;100.00
9257;BME280;4665;51.368;6.782;2022-09-28T08:45:30;99417.13;;;8.41;100.00
9257;BME280;4665;51.368;6.782;2022-09-28T08:48:22;99429.53;;;8.49;100.00
9257;BME280;4665;51.368;6.782;2022-09-28T08:51:21;99420.72;;;8.57;100.00
9257;BME280;4665;51.368;6.782;2022-09-28T08:54:05;99419.38;;;8.61;100.00
9257;BME280;4665;51.368;6.782;2022-09-28T08:59:02;99421.66;;;8.64;100.00
9257;BME280;4665;51.368;6.782;2022-09-28T09:01:36;99419.44;;;8.76;100.00
9257;BME280;4665;51.368;6.782;2022-09-28T09:04:04;99418.13;;;8.72;100.00
9257;BME280;4665;51.368;6.782;2022-09-28T09:14:58;99436.84;;;8.78;100.00
9257;BME280;4665;51.368;6.782;2022-09-28T09:20:25;99442.44;;;8.83;100.00
9257;BME280;4665;51.368;6.782;2022-09-28T09:22:58;99451.72;;;8.88;100.00
9257;BME280;4665;51.368;6.782;2022-09-28T09:25:25;99445.06;;;8.92;100.00
9257;BME280;4665;51.368;6.782;2022-09-28T09:28:31;99451.03;;;8.94;100.00
9257;BME280;4665;51.368;6.782;2022-09-28T09:42:51;99459.34;;;9.14;100.00
9257;BME280;4665;51.368;6.782;2022-09-28T09:44:51;99453.91;;;9.07;100.00
9257;BME280;4665;51.368;6.782;2022-09-28T09:47:27;99459.03;;;9.09;100.00
9257;BME280;4665;51.368;6.782;2022-09-28T09:50:00;99457.22;;;9.09;100.00
9257;BME280;4665;51.368;6.782;2022-09-28T09:53:35;99458.63;;;9.20;100.00
9257;BME280;4665;51.368;6.782;2022-09-28T09:55:39;99457.81;;;9.19;100.00
9257;BME280;4665;51.368;6.782;2022-09-28T10:01:37;99464.72;;;9.29;100.00
9257;BME280;4665;51.368;6.782;2022-09-28T10:04:16;99468.66;;;9.33;100.00
9257;BME280;4665;51.368;6.782;2022-09-28T10:06:43;99462.72;;;9.31;100.00
9257;BME280;4665;51.368;6.782;2022-09-28T10:09:13;99472.34;;;9.32;100.00
9257;BME280;4665;51.368;6.782;2022-09-28T10:11:43;99464.06;;;9.26;100.00
9257;BME280;4665;51.368;6.782;2022-09-28T10:14:20;99467.06;;;9.23;100.00
9257;BME280;4665;51.368;6.782;2022-09-28T10:16:47;99470.03;;;9.29;100.00
9257;BME280;4665;51.368;6.782;2022-09-28T10:19:16;99453.25;;;9.28;100.00
9257;BME280;4665;51.368;6.782;2022-09-28T10:21:46;99462.06;;;9.29;100.00
9257;BME280;4665;51.368;6.782;2022-09-28T10:24:37;99467.03;;;9.32;100.00
9257;BME280;4665;51.368;6.782;2022-09-28T10:27:12;99460.88;;;9.31;100.00
9257;BME280;4665;51.368;6.782;2022-09-28T10:32:44;99461.44;;;9.41;100.00
9257;BME280;4665;51.368;6.782;2022-09-28T10:35:24;99475.03;;;9.46;100.00
9257;BME280;4665;51.368;6.782;2022-09-28T10:38:14;99468.03;;;9.68;100.00
9257;BME280;4665;51.368;6.782;2022-09-28T10:40:44;99465.53;;;9.67;100.00
9257;BME280;4665;51.368;6.782;2022-09-28T10:45:42;99468.31;;;9.74;100.00
9257;BME280;4665;51.368;6.782;2022-09-28T10:48:18;99465.38;;;9.83;100.00
9257;BME280;4665;51.368;6.782;2022-09-28T10:51:06;99464.13;;;9.94;100.00
9257;BME280;4665;51.368;6.782;2022-09-28T10:53:33;99469.72;;;9.99;100.00
9257;BME280;4665;51.368;6.782;2022-09-28T10:56:06;99468.25;;;10.26;100.00
9257;BME280;4665;51.368;6.782;2022-09-28T10:58:42;99463.50;;;10.37;100.00
9257;BME280;4665;51.368;6.782;2022-09-28T11:01:18;99469.72;;;10.44;100.00
9257;BME280;4665;51.368;6.782;2022-09-28T11:03:49;99465.88;;;10.46;100.00
9257;BME280;4665;51.368;6.782;2022-09-28T11:06:23;99462.22;;;10.47;100.00
9257;BME280;4665;51.368;6.782;2022-09-28T11:08:49;99461.75;;;10.44;100.00
9257;BME280;4665;51.368;6.782;2022-09-28T11:11:16;99472.03;;;10.47;100.00
9257;BME280;4665;51.368;6.782;2022-09-28T11:13:53;99466.25;;;10.43;100.00
9257;BME280;4665;51.368;6.782;2022-09-28T11:16:28;99465.44;;;10.43;100.00
9257;BME280;4665;51.368;6.782;2022-09-28T11:19:03;99467.84;;;10.38;100.00
9257;BME280;4665;51.368;6.782;2022-09-28T11:21:30;99462.03;;;10.34;100.00
9257;BME280;4665;51.368;6.782;2022-09-28T11:24:24;99465.59;;;10.41;100.00
9257;BME280;4665;51.368;6.782;2022-09-28T11:26:53;99466.25;;;10.43;100.00
9257;BME280;4665;51.368;6.782;2022-09-28T11:29:36;99460.50;;;10.40;100.00
9257;BME280;4665;51.368;6.782;2022-09-28T11:32:03;99461.94;;;10.42;100.00
9257;BME280;4665;51.368;6.782;2022-09-28T11:34:33;99458.00;;;10.38;100.00
9257;BME280;4665;51.368;6.782;2022-09-28T11:37:31;99459.63;;;10.39;100.00
9257;BME280;4665;51.368;6.782;2022-09-28T11:40:26;99461.56;;;10.45;100.00
9257;BME280;4665;51.368;6.782;2022-09-28T11:43:12;99462.22;;;10.47;100.00
9257;BME280;4665;51.368;6.782;2022-09-28T11:48:45;99470.09;;;10.56;100.00
9257;BME280;4665;51.368;6.782;2022-09-28T11:51:18;99460.06;;;10.58;100.00
9257;BME280;4665;51.368;6.782;2022-09-28T11:53:51;99455.69;;;10.50;100.00
9257;BME280;4665;51.368;6.782;2022-09-28T11:59:04;99462.09;;;10.56;100.00
9257;BME280;4665;51.368;6.782;2022-09-28T12:06:49;99461.91;;;10.57;100.00
9257;BME280;4665;51.368;6.782;2022-09-28T12:09:40;99455.78;;;10.57;100.00
9257;BME280;4665;51.368;6.782;2022-09-28T12:12:19;99464.75;;;10.56;100.00
9257;BME280;4665;51.368;6.782;2022-09-28T12:14:47;99473.59;;;10.56;100.00
9257;BME280;4665;51.368;6.782;2022-09-28T12:17:33;99459.81;;;10.52;100.00
9257;BME280;4665;51.368;6.782;2022-09-28T12:20:09;99461.00;;;10.50;100.00
9257;BME280;4665;51.368;6.782;2022-09-28T12:22:43;99467.41;;;10.56;100.00
9257;BME280;4665;51.368;6.782;2022-09-28T12:25:13;99461.75;;;10.59;100.00
9257;BME280;4665;51.368;6.782;2022-09-28T12:27:55;99453.53;;;10.60;100.00
9257;BME280;4665;51.368;6.782;2022-09-28T12:30:23;99457.88;;;10.61;100.00
9257;BME280;4665;51.368;6.782;2022-09-28T12:35:43;99462.50;;;10.74;100.00
9257;BME280;4665;51.368;6.782;2022-09-28T12:40:59;99457.72;;;10.84;100.00
9257;BME280;4665;51.368;6.782;2022-09-28T12:43:44;99454.84;;;10.86;100.00
9257;BME280;4665;51.368;6.782;2022-09-28T12:50:19;99451.44;;;10.92;100.00
9257;BME280;4665;51.368;6.782;2022-09-28T12:52:56;99445.47;;;10.90;100.00
9257;BME280;4665;51.368;6.782;2022-09-28T13:01:40;99446.38;;;10.97;100.00
9257;BME280;4665;51.368;6.782;2022-09-28T13:18:48;99441.25;;;10.95;100.00
9257;BME280;4665;51.368;6.782;2022-09-28T13:21:33;99432.88;;;10.99;100.00
9257;BME280;4665;51.368;6.782;2022-09-28T13:24:01;99436.16;;;11.01;100.00
9257;BME280;4665;51.368;6.782;2022-09-28T13:26:37;99437.81;;;11.02;100.00
9257;BME280;4665;51.368;6.782;2022-09-28T13:29:12;99430.47;;;11.04;100.00
9257;BME280;4665;51.368;6.782;2022-09-28T13:31:48;99427.03;;;11.10;100.00
9257;BME280;4665;51.368;6.782;2022-09-28T13:34:31;99433.50;;;11.22;100.00
9257;BME280;4665;51.368;6.782;2022-09-28T13:52:53;99446.97;;;11.14;100.00
9257;BME280;4665;51.368;6.782;2022-09-28T13:55:26;99443.03;;;11.10;100.00
9257;BME280;4665;51.368;6.782;2022-09-28T13:58:30;99442.78;;;11.05;100.00
9257;BME280;4665;51.368;6.782;2022-09-28T14:01:07;99455.47;;;11.03;100.00
9257;BME280;4665;51.368;6.782;2022-09-28T14:06:28;99457.09;;;11.04;100.00
9257;BME280;4665;51.368;6.782;2022-09-28T14:11:54;99462.03;;;11.07;100.00
9257;BME280;4665;51.368;6.782;2022-09-28T14:14:57;99459.03;;;11.10;100.00
9257;BME280;4665;51.368;6.782;2022-09-28T14:19:58;99454.06;;;11.07;100.00
9257;BME280;4665;51.368;6.782;2022-09-28T14:30:25;99464.91;;;11.05;100.00
9257;BME280;4665;51.368;6.782;2022-09-28T14:32:56;99458.41;;;10.93;100.00
9257;BME280;4665;51.368;6.782;2022-09-28T14:35:38;99458.97;;;10.88;100.00
9257;BME280;4665;51.368;6.782;2022-09-28T14:38:13;99472.91;;;10.84;100.00
9257;BME280;4665;51.368;6.782;2022-09-28T14:41:00;99466.94;;;10.82;100.00
9257;BME280;4665;51.368;6.782;2022-09-28T14:53:56;99491.38;;;10.56;100.00
9257;BME280;4665;51.368;6.782;2022-09-28T14:59:22;99510.78;;;10.35;100.00
9257;BME280;4665;51.368;6.782;2022-09-28T15:01:53;99507.59;;;10.16;100.00
9257;BME280;4665;51.368;6.782;2022-09-28T15:04:20;99503.47;;;10.14;100.00
9257;BME280;4665;51.368;6.782;2022-09-28T15:06:48;99510.81;;;10.11;100.00
9257;BME280;4665;51.368;6.782;2022-09-28T15:09:34;99511.53;;;9.90;100.00
9257;BME280;4665;51.368;6.782;2022-09-28T15:12:10;99512.06;;;9.86;100.00
9257;BME280;4665;51.368;6.782;2022-09-28T15:14:51;99509.59;;;9.84;100.00
9257;BME280;4665;51.368;6.782;2022-09-28T15:17:28;99510.16;;;9.80;100.00
9257;BME280;4665;51.368;6.782;2022-09-28T15:22:47;99503.00;;;9.80;100.00
9257;BME280;4665;51.368;6.782;2022-09-28T15:25:16;99508.47;;;9.79;100.00
9257;BME280;4665;51.368;6.782;2022-09-28T15:27:45;99509.78;;;9.83;100.00
9257;BME280;4665;51.368;6.782;2022-09-28T15:32:54;99506.63;;;9.79;100.00
9257;BME280;4665;51.368;6.782;2022-09-28T15:35:25;99500.50;;;9.79;100.00
9257;BME280;4665;51.368;6.782;2022-09-28T15:37:53;99504.88;;;9.72;100.00
9257;BME280;4665;51.368;6.782;2022-09-28T15:40:30;99513.06;;;9.70;100.00
9257;BME280;4665;51.368;6.782;2022-09-28T15:42:58;99506.44;;;9.66;100.00
9257;BME280;4665;51.368;6.782;2022-09-28T15:45:25;99499.47;;;9.65;100.00
9257;BME280;4665;51.368;6.782;2022-09-28T15:47:53;99498.63;;;9.64;100.00
9257;BME280;4665;51.368;6.782;2022-09-28T15:50:25;99494.16;;;9.65;100.00
9257;BME280;4665;51.368;6.782;2022-09-28T15:53:03;99503.50;;;9.61;100.00
9257;BME280;4665;51.368;6.782;2022-09-28T15:55:31;99514.31;;;9.59;100.00
9257;BME280;4665;51.368;6.782;2022-09-28T15:58:06;99531.03;;;9.45;100.00
9257;BME280;4665;51.368;6.782;2022-09-28T16:00:33;99540.53;;;9.39;100.00
9257;BME280;4665;51.368;6.782;2022-09-28T16:03:01;99570.31;;;9.35;100.00
9257;BME280;4665;51.368;6.782;2022-09-28T16:05:31;99569.31;;;9.36;100.00
9257;BME280;4665;51.368;6.782;2022-09-28T16:08:02;99556.34;;;9.33;100.00
9257;BME280;4665;51.368;6.782;2022-09-28T16:13:23;99562.44;;;9.18;100.00
9257;BME280;4665;51.368;6.782;2022-09-28T16:15:58;99554.16;;;9.13;100.00
9257;BME280;4665;51.368;6.782;2022-09-28T16:18:26;99557.84;;;9.12;100.00
9257;BME280;4665;51.368;6.782;2022-09-28T16:20:53;99556.38;;;9.01;100.00
9257;BME280;4665;51.368;6.782;2022-09-28T16:23:30;99559.56;;;8.97;100.00